createdAt,value
2018-03-15T00:00:35.046Z,18.70
2018-03-15T00:03:03.963Z,16.80
2018-03-15T00:05:32.110Z,19.43
2018-03-15T00:08:00.282Z,20.90
2018-03-15T00:10:28.508Z,18.40
2018-03-15T00:12:57.412Z,20.30
2018-03-15T00:15:25.594Z,17.27
2018-03-15T00:17:53.758Z,18.73
2018-03-15T00:20:21.961Z,18.83
2018-03-15T00:22:50.873Z,19.40
2018-03-15T00:25:18.989Z,18.27
2018-03-15T00:27:47.159Z,19.17
2018-03-15T00:30:15.277Z,21.53
2018-03-15T00:32:43.488Z,19.30
2018-03-15T00:35:11.605Z,20.17
2018-03-15T00:37:40.501Z,19.93
2018-03-15T00:40:09.427Z,23.60
2018-03-15T00:42:37.579Z,21.37
2018-03-15T00:45:06.478Z,25.00
2018-03-15T00:47:34.669Z,18.97
2018-03-15T00:50:02.815Z,23.57
2018-03-15T00:52:31.006Z,21.23
2018-03-15T00:54:59.278Z,22.83
2018-03-15T00:57:27.541Z,23.53
2018-03-15T00:59:56.453Z,20.83
2018-03-15T01:02:24.563Z,21.93
2018-03-15T01:04:52.725Z,22.27
2018-03-15T01:07:20.913Z,25.57
2018-03-15T01:09:49.028Z,22.83
2018-03-15T01:12:17.223Z,20.23
2018-03-15T01:14:45.397Z,27.93
2018-03-15T01:17:13.557Z,25.47
2018-03-15T01:19:41.793Z,22.27
2018-03-15T01:22:09.913Z,23.87
2018-03-15T01:24:38.090Z,22.30
2018-03-15T01:27:07.010Z,23.00
2018-03-15T01:29:35.181Z,23.33
2018-03-15T01:32:04.160Z,23.53
2018-03-15T01:34:32.370Z,24.73
2018-03-15T01:37:00.533Z,26.27
2018-03-15T01:39:28.648Z,26.63
2018-03-15T01:41:57.528Z,26.20
2018-03-15T01:44:25.771Z,24.83
2018-03-15T01:46:53.986Z,25.40
2018-03-15T01:49:22.137Z,24.00
2018-03-15T01:51:50.279Z,23.73
2018-03-15T01:54:18.454Z,23.67
2018-03-15T01:56:46.574Z,23.67
2018-03-15T01:59:15.488Z,26.37
2018-03-15T02:01:43.635Z,25.00
2018-03-15T02:04:11.839Z,26.13
2018-03-15T02:06:39.990Z,27.63
2018-03-15T02:09:08.178Z,25.77
2018-03-15T02:11:36.308Z,27.73
2018-03-15T02:14:05.207Z,27.07
2018-03-15T02:16:34.118Z,24.63
2018-03-15T02:19:03.068Z,32.63
2018-03-15T02:21:31.222Z,24.33
2018-03-15T02:24:00.161Z,27.60
2018-03-15T02:26:28.313Z,27.33
2018-03-15T02:28:56.502Z,24.70
2018-03-15T02:31:24.640Z,27.10
2018-03-15T02:33:52.832Z,25.97
2018-03-15T02:36:22.748Z,23.90
2018-03-15T02:38:50.907Z,26.23
2018-03-15T02:41:19.131Z,31.27
2018-03-15T02:43:48.037Z,24.90
2018-03-15T02:46:16.198Z,40.83
2018-03-15T02:48:44.322Z,34.00
2018-03-15T02:51:13.256Z,29.07
2018-03-15T02:53:41.417Z,30.97
2018-03-15T02:56:09.627Z,30.77
2018-03-15T02:58:37.758Z,30.23
2018-03-15T03:01:05.912Z,26.50
2018-03-15T03:03:39.543Z,26.60
2018-03-15T03:06:07.695Z,31.53
2018-03-15T03:08:35.832Z,29.13
2018-03-15T03:11:03.957Z,27.77
2018-03-15T03:13:32.831Z,28.83
2018-03-15T03:16:02.510Z,30.53
2018-03-15T03:18:45.634Z,30.73
2018-03-15T03:21:13.810Z,30.17
2018-03-15T03:23:47.502Z,26.67
2018-03-15T03:26:15.640Z,26.37
2018-03-15T03:28:59.904Z,25.57
2018-03-15T03:31:28.176Z,25.60
2018-03-15T03:34:12.663Z,30.20
2018-03-15T03:36:41.534Z,27.13
2018-03-15T03:39:10.430Z,30.23
2018-03-15T03:41:38.598Z,32.10
2018-03-15T03:44:06.770Z,31.90
2018-03-15T03:46:40.686Z,31.73
2018-03-15T03:49:08.884Z,31.07
2018-03-15T03:51:37.029Z,28.90
2018-03-15T03:54:11.647Z,36.47
2018-03-15T03:56:39.810Z,36.40
2018-03-15T03:59:07.970Z,33.27
2018-03-15T04:01:42.572Z,33.63
2018-03-15T04:04:25.599Z,30.13
2018-03-15T04:06:54.566Z,30.60
2018-03-15T04:09:29.249Z,31.63
2018-03-15T04:12:03.404Z,32.47
2018-03-15T04:14:31.540Z,39.23
2018-03-15T04:17:00.530Z,28.97
2018-03-15T04:19:44.942Z,33.43
2018-03-15T04:22:20.975Z,35.47
2018-03-15T04:24:49.109Z,32.00
2018-03-15T04:27:23.731Z,37.10
2018-03-15T04:29:57.673Z,36.43
2018-03-15T04:32:25.855Z,47.47
2018-03-15T04:34:53.983Z,41.53
2018-03-15T04:37:27.773Z,35.30
2018-03-15T04:40:11.866Z,39.53
2018-03-15T04:42:40.021Z,31.93
2018-03-15T04:45:13.733Z,30.37
2018-03-15T04:47:41.932Z,34.33
2018-03-15T04:50:10.861Z,37.30
2018-03-15T04:52:39.045Z,35.33
2018-03-15T04:55:13.530Z,47.30
2018-03-15T04:57:41.741Z,37.83
2018-03-15T05:00:09.993Z,36.50
2018-03-15T05:02:38.113Z,52.20
2018-03-15T05:05:24.270Z,39.13
2018-03-15T05:07:52.428Z,34.77
2018-03-15T05:10:26.286Z,48.07
2018-03-15T05:12:55.279Z,38.87
2018-03-15T05:15:23.409Z,39.60
2018-03-15T05:17:51.655Z,40.43
2018-03-15T05:20:30.674Z,48.73
2018-03-15T05:23:04.432Z,50.30
2018-03-15T05:25:32.552Z,88.37
2018-03-15T05:28:00.694Z,80.63
2018-03-15T05:30:29.581Z,64.40
2018-03-15T05:32:57.730Z,64.30
2018-03-15T05:35:25.924Z,43.20
2018-03-15T05:37:59.646Z,47.17
2018-03-15T05:40:27.835Z,58.80
2018-03-15T05:43:01.561Z,41.93
2018-03-15T05:45:29.676Z,40.07
2018-03-15T05:47:58.597Z,44.60
2018-03-15T05:50:47.751Z,42.83
2018-03-15T05:53:15.921Z,48.50
2018-03-15T05:55:44.062Z,41.17
2018-03-15T05:58:17.992Z,54.00
2018-03-15T06:00:46.139Z,64.23
2018-03-15T06:03:15.398Z,144.50
2018-03-15T06:05:43.531Z,100.93
2018-03-15T06:08:11.796Z,77.87
2018-03-15T06:10:51.541Z,64.57
2018-03-15T06:13:20.227Z,47.60
2018-03-15T06:15:53.876Z,41.70
2018-03-15T06:18:22.003Z,37.83
2018-03-15T06:20:50.209Z,31.30
2018-03-15T06:23:18.321Z,33.33
2018-03-15T06:25:46.487Z,33.27
2018-03-15T06:28:20.297Z,37.50
2018-03-15T06:30:48.525Z,36.07
2018-03-15T06:33:16.689Z,34.80
2018-03-15T06:35:51.272Z,36.97
2018-03-15T06:38:19.445Z,32.50
2018-03-15T06:40:53.205Z,34.73
2018-03-15T06:43:21.413Z,30.27
2018-03-15T06:45:49.594Z,26.90
2018-03-15T06:48:17.746Z,30.50
2018-03-15T06:50:49.388Z,30.63
2018-03-15T06:53:17.576Z,27.83
2018-03-15T06:56:03.849Z,28.07
2018-03-15T06:58:32.011Z,27.67
2018-03-15T07:01:05.998Z,26.23
2018-03-15T07:03:34.121Z,29.17
2018-03-15T07:06:02.312Z,29.77
2018-03-15T07:08:49.024Z,28.33
2018-03-15T07:11:17.174Z,28.33
2018-03-15T07:13:45.291Z,26.37
2018-03-15T07:16:19.204Z,28.70
2018-03-15T07:18:53.072Z,29.47
2018-03-15T07:21:22.045Z,26.90
2018-03-15T07:23:50.174Z,27.17
2018-03-15T07:26:23.929Z,26.27
2018-03-15T07:28:52.234Z,31.03
2018-03-15T07:31:26.782Z,30.13
2018-03-15T07:33:55.003Z,30.03
2018-03-15T07:36:23.260Z,25.33
2018-03-15T07:38:57.913Z,24.87
2018-03-15T07:41:26.064Z,21.90
2018-03-15T07:43:54.992Z,23.33
2018-03-15T07:46:23.117Z,22.93
2018-03-15T07:48:57.136Z,24.10
2018-03-15T07:51:25.286Z,23.83
2018-03-15T07:53:53.412Z,18.57
2018-03-15T07:56:27.272Z,19.80
2018-03-15T07:58:55.526Z,18.10
2018-03-15T08:01:29.233Z,21.73
2018-03-15T08:03:57.334Z,19.97
2018-03-15T08:06:25.561Z,14.90
2018-03-15T08:08:54.468Z,15.70
2018-03-15T08:11:22.609Z,16.60
2018-03-15T08:13:50.705Z,15.37
2018-03-15T08:16:18.912Z,17.20
2018-03-15T08:18:47.151Z,16.57
2018-03-15T08:21:15.308Z,14.73
2018-03-15T08:23:43.547Z,15.77
2018-03-15T08:26:11.685Z,15.90
2018-03-15T08:28:40.002Z,13.53
2018-03-15T08:31:08.174Z,16.07
2018-03-15T08:33:36.280Z,14.50
2018-03-15T08:36:04.476Z,16.57
2018-03-15T08:38:32.647Z,13.43
2018-03-15T08:41:00.842Z,12.77
2018-03-15T08:43:28.988Z,13.43
2018-03-15T08:45:57.132Z,12.77
2018-03-15T08:48:25.484Z,15.13
2018-03-15T08:50:53.636Z,15.97
2018-03-15T08:53:22.559Z,18.07
2018-03-15T08:55:50.710Z,13.57
2018-03-15T08:58:19.697Z,14.23
2018-03-15T09:00:47.810Z,13.47
2018-03-15T09:03:15.997Z,15.50
2018-03-15T09:05:44.978Z,16.33
2018-03-15T09:08:13.197Z,13.77
2018-03-15T09:10:42.130Z,13.70
2018-03-15T09:13:10.304Z,14.50
2018-03-15T09:15:38.470Z,11.73
2018-03-15T09:18:07.357Z,10.87
2018-03-15T09:20:35.473Z,11.60
2018-03-15T09:23:03.609Z,11.77
2018-03-15T09:25:31.787Z,10.43
2018-03-15T09:27:59.943Z,10.83
2018-03-15T09:30:28.061Z,10.87
2018-03-15T09:32:56.241Z,11.50
2018-03-15T09:35:24.401Z,11.27
2018-03-15T09:37:52.584Z,11.37
2018-03-15T09:40:20.729Z,10.77
2018-03-15T09:42:48.895Z,12.00
2018-03-15T09:45:17.018Z,15.37
2018-03-15T09:47:46.039Z,11.23
2018-03-15T09:50:15.031Z,12.60
2018-03-15T09:52:43.953Z,11.60
2018-03-15T09:55:12.168Z,10.23
2018-03-15T09:57:40.348Z,10.83
2018-03-15T10:00:08.477Z,10.50
2018-03-15T10:02:36.699Z,11.30
2018-03-15T10:05:04.803Z,12.67
2018-03-15T10:07:32.938Z,11.90
2018-03-15T10:10:01.065Z,13.03
2018-03-15T10:12:29.201Z,13.03
2018-03-15T10:14:57.392Z,14.00
2018-03-15T10:17:25.518Z,12.50
2018-03-15T10:19:53.673Z,11.60
2018-03-15T10:22:21.779Z,11.63
2018-03-15T10:24:50.748Z,11.53
2018-03-15T10:27:18.875Z,10.13
2018-03-15T10:29:47.102Z,12.00
2018-03-15T10:32:15.229Z,12.70
2018-03-15T10:34:44.177Z,10.20
2018-03-15T10:37:12.306Z,9.67
2018-03-15T10:39:40.405Z,11.00
2018-03-15T10:42:09.405Z,11.57
2018-03-15T10:44:37.580Z,9.03
2018-03-15T10:47:05.842Z,11.10
2018-03-15T10:49:33.970Z,8.90
2018-03-15T10:52:02.095Z,10.70
2018-03-15T10:54:30.209Z,9.23
2018-03-15T10:56:58.355Z,8.50
2018-03-15T10:59:26.536Z,9.97
2018-03-15T11:02:00.997Z,9.00
2018-03-15T11:04:33.914Z,8.73
2018-03-15T11:07:04.852Z,8.70
2018-03-15T11:09:33.013Z,9.60
2018-03-15T11:12:01.265Z,8.80
2018-03-15T11:14:29.381Z,10.47
2018-03-15T11:16:58.309Z,8.37
2018-03-15T11:19:26.562Z,8.23
2018-03-15T11:21:55.112Z,9.43
2018-03-15T11:24:23.477Z,9.00
2018-03-15T11:26:52.632Z,8.13
2018-03-15T11:29:21.508Z,9.17
2018-03-15T11:31:50.121Z,8.10
2018-03-15T11:34:18.795Z,8.60
2018-03-15T11:36:47.437Z,9.83
2018-03-15T11:39:15.550Z,8.37
2018-03-15T11:41:44.395Z,9.37
2018-03-15T11:44:12.532Z,8.50
2018-03-15T11:46:40.757Z,10.73
2018-03-15T11:49:08.898Z,11.47
2018-03-15T11:51:37.874Z,8.57
2018-03-15T11:54:06.070Z,9.47
2018-03-15T11:56:34.173Z,8.40
2018-03-15T11:59:03.103Z,8.90
2018-03-15T12:01:31.226Z,9.07
2018-03-15T12:03:59.834Z,9.80
2018-03-15T12:06:28.017Z,10.37
2018-03-15T12:08:56.911Z,10.33
2018-03-15T12:11:25.079Z,9.83
2018-03-15T12:13:53.183Z,24.23
2018-03-15T12:16:21.341Z,15.50
2018-03-15T12:18:50.684Z,9.23
2018-03-15T12:21:18.797Z,8.90
2018-03-15T12:23:46.903Z,11.93
2018-03-15T12:26:15.886Z,12.97
2018-03-15T12:28:44.034Z,16.97
2018-03-15T12:31:12.168Z,14.97
2018-03-15T12:33:41.083Z,10.33
2018-03-15T12:36:10.012Z,9.67
2018-03-15T12:38:38.574Z,10.87
2018-03-15T12:41:06.815Z,10.00
2018-03-15T12:43:35.075Z,9.17
2018-03-15T12:46:03.221Z,9.93
2018-03-15T12:48:31.334Z,9.73
2018-03-15T12:50:59.484Z,14.13
2018-03-15T12:53:27.695Z,10.50
2018-03-15T12:55:56.576Z,11.23
2018-03-15T12:58:24.843Z,10.47
2018-03-15T13:00:52.998Z,9.63
2018-03-15T13:03:21.171Z,10.50
2018-03-15T13:05:50.041Z,10.20
2018-03-15T13:08:18.270Z,11.77
2018-03-15T13:10:46.498Z,9.80
2018-03-15T13:13:15.495Z,9.63
2018-03-15T13:15:43.632Z,10.60
2018-03-15T13:18:12.545Z,10.33
2018-03-15T13:20:41.422Z,9.23
2018-03-15T13:23:09.590Z,9.60
2018-03-15T13:25:37.727Z,8.40
2018-03-15T13:28:05.944Z,7.97
2018-03-15T13:30:34.083Z,8.80
2018-03-15T13:33:03.000Z,17.03
2018-03-15T13:35:31.872Z,9.13
2018-03-15T13:38:00.005Z,9.70
2018-03-15T13:40:28.119Z,14.10
2018-03-15T13:42:56.285Z,11.23
2018-03-15T13:45:24.516Z,9.87
2018-03-15T13:47:52.690Z,9.57
2018-03-15T13:50:20.825Z,10.33
2018-03-15T13:52:48.977Z,12.30
2018-03-15T13:55:17.225Z,10.33
2018-03-15T13:57:45.400Z,10.47
2018-03-15T14:00:13.539Z,10.63
2018-03-15T14:02:41.792Z,11.07
2018-03-15T14:05:10.006Z,11.83
2018-03-15T14:07:38.177Z,10.43
2018-03-15T14:10:06.373Z,10.27
2018-03-15T14:12:34.485Z,10.57
2018-03-15T14:15:03.373Z,9.40
2018-03-15T14:17:31.562Z,12.93
2018-03-15T14:19:59.674Z,11.00
2018-03-15T14:22:27.830Z,11.87
2018-03-15T14:24:56.037Z,11.57
2018-03-15T14:27:24.920Z,11.57
2018-03-15T14:29:53.103Z,15.80
2018-03-15T14:32:21.278Z,12.37
2018-03-15T14:34:49.404Z,13.20
2018-03-15T14:37:18.301Z,10.87
2018-03-15T14:39:47.217Z,12.20
2018-03-15T14:42:15.440Z,11.97
2018-03-15T14:44:43.648Z,11.07
2018-03-15T14:47:11.810Z,13.00
2018-03-15T14:49:39.980Z,11.87
2018-03-15T14:52:08.101Z,13.90
2018-03-15T14:54:36.374Z,11.53
2018-03-15T14:57:04.579Z,12.73
2018-03-15T14:59:32.714Z,11.37
2018-03-15T15:02:00.934Z,11.50
2018-03-15T15:04:29.089Z,11.90
2018-03-15T15:06:57.252Z,12.67
2018-03-15T15:09:26.172Z,11.10
2018-03-15T15:11:54.384Z,11.93
2018-03-15T15:14:22.517Z,13.73
2018-03-15T15:16:50.653Z,11.77
2018-03-15T15:19:18.781Z,15.20
2018-03-15T15:21:46.941Z,12.77
2018-03-15T15:24:15.024Z,12.97
2018-03-15T15:26:43.143Z,14.80
2018-03-15T15:29:11.323Z,12.13
2018-03-15T15:31:39.515Z,12.70
2018-03-15T15:34:07.631Z,14.83
2018-03-15T15:36:35.813Z,15.17
2018-03-15T15:39:04.768Z,12.90
2018-03-15T15:41:32.899Z,17.67
2018-03-15T15:44:01.781Z,14.67
2018-03-15T15:46:29.906Z,14.07
2018-03-15T15:48:58.053Z,16.83
2018-03-15T15:51:26.988Z,13.07
2018-03-15T15:53:55.155Z,12.30
2018-03-15T15:56:23.365Z,12.53
2018-03-15T15:58:51.599Z,12.73
2018-03-15T16:01:19.693Z,13.13
2018-03-15T16:03:47.858Z,13.97
2018-03-15T16:06:15.998Z,13.97
2018-03-15T16:08:44.873Z,19.60
2018-03-15T16:11:13.106Z,14.13
2018-03-15T16:13:41.256Z,13.63
2018-03-15T16:16:09.433Z,14.63
2018-03-15T16:18:37.637Z,11.50
2018-03-15T16:21:05.763Z,12.80
2018-03-15T16:23:33.920Z,16.13
2018-03-15T16:26:02.048Z,14.60
2018-03-15T16:28:30.160Z,14.50
2018-03-15T16:30:58.324Z,12.87
2018-03-15T16:33:26.463Z,13.37
2018-03-15T16:35:55.374Z,13.90
2018-03-15T16:38:24.364Z,13.07
2018-03-15T16:40:52.488Z,11.77
2018-03-15T16:43:20.676Z,12.57
2018-03-15T16:45:48.928Z,12.67
2018-03-15T16:48:17.818Z,12.20
2018-03-15T16:50:46.744Z,11.97
2018-03-15T16:53:14.898Z,13.07
2018-03-15T16:55:43.013Z,12.40
2018-03-15T16:58:11.961Z,12.00
2018-03-15T17:00:40.104Z,12.53
2018-03-15T17:03:09.071Z,11.20
2018-03-15T17:05:37.227Z,12.13
2018-03-15T17:08:05.345Z,12.17
2018-03-15T17:10:33.465Z,13.20
2018-03-15T17:13:01.697Z,12.83
2018-03-15T17:15:29.848Z,11.63
2018-03-15T17:17:58.017Z,11.63
2018-03-15T17:20:26.973Z,11.67
2018-03-15T17:22:55.177Z,11.90
2018-03-15T17:25:23.297Z,12.60
2018-03-15T17:27:52.173Z,12.63
2018-03-15T17:30:20.281Z,12.20
2018-03-15T17:32:49.205Z,12.10
2018-03-15T17:35:17.438Z,13.43
2018-03-15T17:37:45.800Z,16.10
2018-03-15T17:40:13.976Z,15.23
2018-03-15T17:42:42.179Z,14.10
2018-03-15T17:45:10.426Z,16.30
2018-03-15T17:47:39.306Z,17.77
2018-03-15T17:50:07.485Z,20.40
2018-03-15T17:52:35.652Z,20.40
2018-03-15T17:55:03.864Z,20.77
2018-03-15T17:57:31.973Z,20.47
2018-03-15T18:00:00.922Z,17.70
2018-03-15T18:02:29.096Z,16.67
2018-03-15T18:04:57.255Z,17.17
2018-03-15T18:07:26.158Z,16.63
2018-03-15T18:09:55.031Z,15.57
2018-03-15T18:12:23.159Z,15.47
2018-03-15T18:14:51.400Z,17.67
2018-03-15T18:17:19.568Z,15.67
2018-03-15T18:19:47.722Z,16.23
2018-03-15T18:22:15.853Z,16.13
2018-03-15T18:24:43.977Z,17.03
2018-03-15T18:27:12.885Z,16.47
2018-03-15T18:29:41.821Z,15.20
2018-03-15T18:32:09.960Z,14.40
2018-03-15T18:34:38.084Z,15.83
2018-03-15T18:37:07.194Z,17.33
2018-03-15T18:39:35.484Z,16.07
2018-03-15T18:42:03.556Z,16.50
2018-03-15T18:44:31.705Z,16.57
2018-03-15T18:46:59.829Z,20.80
2018-03-15T18:49:28.052Z,17.47
2018-03-15T18:51:56.167Z,21.13
2018-03-15T18:54:24.300Z,19.83
2018-03-15T18:56:52.539Z,19.73
2018-03-15T18:59:21.269Z,20.23
2018-03-15T19:01:50.817Z,22.00
2018-03-15T19:04:19.038Z,19.77
2018-03-15T19:06:47.210Z,18.23
2018-03-15T19:09:15.315Z,21.47
2018-03-15T19:11:43.494Z,21.43
2018-03-15T19:14:11.728Z,22.97
2018-03-15T19:16:39.845Z,20.17
2018-03-15T19:19:08.005Z,18.47
2018-03-15T19:21:36.112Z,18.30
2018-03-15T19:24:05.269Z,16.23
2018-03-15T19:26:33.610Z,24.87
2018-03-15T19:29:01.717Z,21.63
2018-03-15T19:31:29.900Z,20.37
2018-03-15T19:33:57.996Z,21.00
2018-03-15T19:36:26.195Z,17.03
2018-03-15T19:38:54.458Z,18.80
2018-03-15T19:41:22.611Z,20.50
2018-03-15T19:43:51.179Z,18.20
2018-03-15T19:46:19.260Z,17.30
2018-03-15T19:48:47.392Z,19.50
2018-03-15T19:51:15.644Z,20.70
2018-03-15T19:53:44.539Z,17.43
2018-03-15T19:56:13.410Z,18.57
2018-03-15T19:58:41.544Z,17.83
2018-03-15T20:01:10.450Z,18.50
2018-03-15T20:03:38.665Z,17.30
2018-03-15T20:06:06.794Z,16.17
2018-03-15T20:08:35.061Z,16.60
2018-03-15T20:11:03.321Z,15.80
2018-03-15T20:13:32.466Z,12.93
2018-03-15T20:16:00.734Z,11.40
2018-03-15T20:18:29.075Z,11.10
2018-03-15T20:20:57.198Z,15.73
2018-03-15T20:23:30.994Z,10.47
2018-03-15T20:25:59.951Z,9.90
2018-03-15T20:28:33.893Z,11.07
2018-03-15T20:31:02.026Z,9.43
2018-03-15T20:33:35.929Z,10.13
2018-03-15T20:36:04.162Z,12.90
2018-03-15T20:38:32.369Z,12.97
2018-03-15T20:41:06.146Z,14.80
2018-03-15T20:43:34.391Z,12.90
2018-03-15T20:46:08.393Z,9.93
2018-03-15T20:48:42.373Z,10.23
2018-03-15T20:51:10.560Z,12.27
2018-03-15T20:53:38.812Z,10.93
2018-03-15T20:56:06.925Z,11.30
2018-03-15T20:58:35.250Z,10.57
2018-03-15T21:01:03.542Z,9.83
2018-03-15T21:03:31.731Z,9.93
2018-03-15T21:05:59.863Z,10.00
2018-03-15T21:08:28.766Z,10.17
2018-03-15T21:10:57.053Z,9.33
2018-03-15T21:13:25.251Z,8.77
2018-03-15T21:15:53.429Z,9.53
2018-03-15T21:18:21.616Z,9.47
2018-03-15T21:20:49.726Z,8.87
2018-03-15T21:23:18.099Z,8.80
2018-03-15T21:25:47.008Z,8.53
2018-03-15T21:28:15.926Z,8.37
2018-03-15T21:30:44.028Z,7.83
2018-03-15T21:33:12.167Z,9.67
2018-03-15T21:35:40.303Z,8.93
2018-03-15T21:38:08.410Z,11.37
2018-03-15T21:40:36.541Z,10.13
2018-03-15T21:43:05.499Z,11.43
2018-03-15T21:45:33.608Z,10.93
2018-03-15T21:48:03.285Z,11.83
2018-03-15T21:50:32.312Z,12.23
2018-03-15T21:53:00.463Z,11.63
2018-03-15T21:55:28.605Z,12.63
2018-03-15T21:57:56.984Z,10.90
2018-03-15T22:00:25.157Z,10.47
2018-03-15T22:02:53.616Z,10.03
2018-03-15T22:07:56.066Z,9.67
2018-03-15T22:10:24.292Z,10.60
2018-03-15T22:12:52.455Z,11.97
2018-03-15T22:15:20.642Z,10.77
2018-03-15T22:17:48.828Z,9.60
2018-03-15T22:20:17.003Z,11.57
2018-03-15T22:22:45.205Z,10.77
2018-03-15T22:25:13.575Z,10.77
2018-03-15T22:27:41.714Z,11.57
2018-03-15T22:30:09.847Z,10.20
2018-03-15T22:32:38.054Z,11.10
2018-03-15T22:35:06.297Z,11.20
2018-03-15T22:37:35.402Z,9.93
2018-03-15T22:40:04.375Z,10.77
2018-03-15T22:42:32.546Z,11.30
2018-03-15T22:45:00.719Z,14.97
2018-03-15T22:47:28.922Z,12.83
2018-03-15T22:49:57.065Z,11.43
2018-03-15T22:52:25.264Z,12.70
2018-03-15T22:54:53.529Z,11.50
2018-03-15T22:57:22.630Z,12.53
2018-03-15T22:59:51.556Z,10.73
2018-03-15T23:02:19.749Z,10.83
2018-03-15T23:04:47.934Z,11.83
2018-03-15T23:07:16.172Z,12.07
2018-03-15T23:09:44.354Z,11.00
2018-03-15T23:12:12.550Z,11.47
2018-03-15T23:14:40.730Z,11.13
2018-03-15T23:17:08.978Z,11.33
2018-03-15T23:19:37.155Z,10.93
2018-03-15T23:22:05.362Z,12.53
2018-03-15T23:24:33.560Z,11.60
2018-03-15T23:27:01.743Z,11.47
2018-03-15T23:29:29.894Z,11.37
2018-03-15T23:31:58.106Z,12.07
2018-03-15T23:34:26.256Z,11.37
2018-03-15T23:36:54.521Z,11.30
2018-03-15T23:39:22.739Z,11.10
2018-03-15T23:41:52.942Z,10.63
2018-03-15T23:44:21.177Z,11.33
2018-03-15T23:46:49.335Z,10.10
2018-03-15T23:49:18.244Z,9.07
2018-03-15T23:51:46.397Z,11.13
2018-03-15T23:54:14.554Z,9.27
2018-03-15T23:56:42.790Z,8.10
2018-03-15T23:59:11.008Z,7.50
